Terminal Aerodrome Forecast
Issued by NWS

Home | Current Version | Previous Version | Text Only | Print | Product List | Glossary On
Versions: 1 2 3 4 5 6 7 8 9 10 11 12 13 14 15 16 17
995
FTUS41 KBTV 242334
TAFMSS
TAF
KMSS 242334Z 2500/2524 21008KT P6SM FEW250
     FM250300 23010KT P6SM FEW250 WS020/26040KT
     FM250900 23011KT P6SM FEW150
     FM251600 23015G23KT P6SM SCT080=

USA.gov is the U.S. government's official web portal to all federal, state and local government web resources and services.